Time;durP1;ratioP1;P1;durP2;ratioP2;P2;SDS_P1;SDS_P2;PMS_P1;PMS_P2;Temp;Humidity;BMP_temperature;BMP_pressure;BME280_temperature;BME280_humidity;BME280_pressure;Samples;Min_cycle;Max_cycle;Signal;HPM_P1;HPM_P2
2021/07/04 00:00:38;;;;;;;5.93;5.43;;;19.30;99.90;;;;;;5070600;28;20067;-78
2021/07/04 00:03:05;;;;;;;8.57;5.82;;;19.20;99.90;;;;;;5067499;28;20067;-78
2021/07/04 00:05:38;;;;;;;6.95;5.68;;;19.20;99.90;;;;;;5070386;28;20024;-78
2021/07/04 00:08:05;;;;;;;8.13;5.35;;;19.10;99.90;;;;;;5071698;28;20021;-77
2021/07/04 00:10:36;;;;;;;6.93;5.05;;;19.00;99.90;;;;;;5071728;28;20055;-78
2021/07/04 00:13:03;;;;;;;6.82;4.90;;;19.00;99.90;;;;;;5071922;28;20029;-78
2021/07/04 00:15:34;;;;;;;5.72;5.15;;;19.00;99.90;;;;;;5071579;28;20566;-77
2021/07/04 00:18:00;;;;;;;8.52;5.22;;;19.00;99.90;;;;;;5071531;28;20151;-77
2021/07/04 00:20:26;;;;;;;5.28;4.57;;;19.00;99.90;;;;;;5071577;28;20043;-78
2021/07/04 00:22:55;;;;;;;7.50;5.10;;;18.90;99.90;;;;;;5071698;28;20423;-78
2021/07/04 00:25:23;;;;;;;5.82;4.65;;;18.80;99.90;;;;;;5071807;28;20087;-77
2021/07/04 00:27:48;;;;;;;6.18;4.65;;;18.90;99.90;;;;;;5071887;28;20033;-77
2021/07/04 00:30:15;;;;;;;5.53;5.00;;;18.90;99.90;;;;;;5070973;28;20059;-77
2021/07/04 00:32:42;;;;;;;6.25;5.75;;;18.90;99.90;;;;;;5071339;28;20420;-77
2021/07/04 00:35:09;;;;;;;6.88;6.00;;;18.70;99.90;;;;;;5071317;28;20078;-78
2021/07/04 00:37:35;;;;;;;6.13;5.28;;;18.70;99.90;;;;;;5071643;28;20051;-77
2021/07/04 00:40:02;;;;;;;5.60;5.10;;;18.80;99.90;;;;;;5071592;28;20384;-77
2021/07/04 00:42:28;;;;;;;6.65;5.75;;;18.90;99.90;;;;;;5074734;28;20028;-78
2021/07/04 00:44:53;;;;;;;6.85;6.28;;;18.90;99.90;;;;;;5074830;28;20103;-78
2021/07/04 00:47:20;;;;;;;9.20;6.60;;;18.90;99.90;;;;;;5074511;28;20078;-78
2021/07/04 00:49:47;;;;;;;7.15;5.95;;;18.90;99.90;;;;;;5075222;28;20107;-78
2021/07/04 00:52:13;;;;;;;8.73;5.28;;;19.00;99.90;;;;;;5074808;28;20111;-78
2021/07/04 00:54:39;;;;;;;6.93;5.53;;;19.00;99.90;;;;;;5075101;28;20069;-78
2021/07/04 00:57:06;;;;;;;5.70;5.20;;;18.90;99.90;;;;;;5074938;28;20078;-78
2021/07/04 00:59:31;;;;;;;6.68;5.70;;;18.90;99.90;;;;;;5074256;28;20131;-78
2021/07/04 01:01:59;;;;;;;6.07;5.30;;;18.70;99.90;;;;;;5074221;28;20543;-78
2021/07/04 01:04:26;;;;;;;6.28;5.40;;;18.70;99.90;;;;;;5074784;28;20488;-78
2021/07/04 01:06:52;;;;;;;5.65;5.00;;;18.50;99.90;;;;;;5074726;28;20078;-78
2021/07/04 01:09:18;;;;;;;6.55;5.45;;;18.50;99.90;;;;;;5074533;28;20029;-78
2021/07/04 01:11:44;;;;;;;7.63;5.28;;;18.30;99.90;;;;;;5073070;28;20408;-78
2021/07/04 01:14:10;;;;;;;7.35;6.30;;;18.30;99.90;;;;;;5072947;28;20025;-78
2021/07/04 01:16:35;;;;;;;6.38;5.78;;;18.40;99.90;;;;;;5074945;28;20039;-78
2021/07/04 01:19:02;;;;;;;7.55;5.40;;;18.60;99.90;;;;;;5073766;28;20063;-77
2021/07/04 01:21:29;;;;;;;6.57;5.75;;;18.60;99.90;;;;;;5073585;28;20530;-78
2021/07/04 01:23:55;;;;;;;6.65;6.05;;;18.50;99.90;;;;;;5073984;28;20030;-78
2021/07/04 01:26:21;;;;;;;7.57;5.38;;;18.60;99.90;;;;;;5074502;28;20027;-78
2021/07/04 01:28:47;;;;;;;6.57;5.95;;;18.60;99.90;;;;;;5072900;28;20016;-78
2021/07/04 01:31:13;;;;;;;6.05;5.45;;;18.60;99.90;;;;;;5074032;28;20115;-77
2021/07/04 01:33:39;;;;;;;13.98;6.65;;;18.50;99.90;;;;;;5074200;28;20020;-78
2021/07/04 01:36:05;;;;;;;6.43;5.75;;;18.30;99.90;;;;;;5073522;28;20028;-78
2021/07/04 01:38:32;;;;;;;7.15;6.00;;;18.20;99.90;;;;;;5073917;28;20024;-78
2021/07/04 01:40:58;;;;;;;6.95;6.35;;;18.30;99.90;;;;;;5073360;28;20483;-78
2021/07/04 01:43:24;;;;;;;7.45;6.85;;;18.40;99.90;;;;;;5073287;28;20041;-78
2021/07/04 01:45:50;;;;;;;7.60;6.30;;;18.50;99.90;;;;;;5072621;28;20028;-78
2021/07/04 01:48:16;;;;;;;10.07;6.93;;;18.30;99.90;;;;;;5074175;28;20020;-78
2021/07/04 01:50:46;;;;;;;8.23;5.82;;;18.10;99.90;;;;;;5073687;28;20123;-78
2021/07/04 01:53:14;;;;;;;7.43;6.68;;;18.20;99.90;;;;;;5073414;28;20054;-78
2021/07/04 01:55:40;;;;;;;7.78;6.70;;;18.30;99.90;;;;;;5073421;28;20556;-78
2021/07/04 01:58:06;;;;;;;6.03;5.43;;;18.50;99.90;;;;;;5073292;28;20095;-77
2021/07/04 02:00:33;;;;;;;6.25;5.72;;;18.70;99.90;;;;;;5074029;28;20032;-77
2021/07/04 02:03:01;;;;;;;8.88;6.45;;;18.60;99.90;;;;;;5073108;28;20024;-78
2021/07/04 02:05:27;;;;;;;6.70;5.85;;;18.70;99.90;;;;;;5073251;28;20016;-78
2021/07/04 02:07:53;;;;;;;7.07;6.25;;;18.80;99.90;;;;;;5072194;28;20023;-77
2021/07/04 02:10:28;;;;;;;5.90;5.30;;;18.80;99.90;;;;;;5053878;28;20035;-78
2021/07/04 02:12:54;;;;;;;6.65;5.47;;;18.70;99.90;;;;;;5061849;28;20024;-78
2021/07/04 02:15:23;;;;;;;7.97;6.43;;;18.80;99.90;;;;;;5073679;28;20508;-78
2021/07/04 02:17:49;;;;;;;7.22;6.53;;;18.70;99.90;;;;;;5073598;28;20028;-78
2021/07/04 02:20:33;;;;;;;7.65;6.93;;;18.50;99.90;;;;;;5073475;28;20126;-78
2021/07/04 02:23:06;;;;;;;9.13;7.47;;;18.30;99.90;;;;;;5071909;28;20374;-78
2021/07/04 02:25:33;;;;;;;8.70;6.13;;;18.30;99.90;;;;;;5072752;28;20365;-78
2021/07/04 02:27:59;;;;;;;6.25;5.60;;;18.50;99.90;;;;;;5072819;28;20038;-78
2021/07/04 02:30:26;;;;;;;6.03;5.45;;;18.60;99.90;;;;;;5073269;28;20024;-77
2021/07/04 02:32:51;;;;;;;13.73;5.97;;;18.70;99.90;;;;;;5073086;28;20028;-78
2021/07/04 02:35:18;;;;;;;6.13;5.50;;;18.70;99.90;;;;;;5073247;28;20020;-78
2021/07/04 02:37:43;;;;;;;6.30;5.78;;;18.80;99.90;;;;;;5073086;28;20032;-78
2021/07/04 02:40:09;;;;;;;5.40;4.90;;;18.70;99.90;;;;;;5072981;28;20044;-77
2021/07/04 02:42:35;;;;;;;7.57;6.00;;;18.60;99.90;;;;;;5072333;28;20020;-78
2021/07/04 02:45:01;;;;;;;7.05;5.75;;;18.60;99.90;;;;;;5073138;28;20074;-78
2021/07/04 02:47:28;;;;;;;8.98;7.18;;;18.60;99.90;;;;;;5072981;28;20087;-78
2021/07/04 02:49:54;;;;;;;6.10;5.53;;;18.60;99.90;;;;;;5072846;28;20036;-78
2021/07/04 02:52:20;;;;;;;9.35;6.18;;;18.60;99.90;;;;;;5072564;28;20393;-78
2021/07/04 02:54:45;;;;;;;7.32;6.60;;;18.60;99.90;;;;;;5072968;28;20086;-78
2021/07/04 02:57:11;;;;;;;7.78;6.97;;;18.40;99.90;;;;;;5072086;28;20112;-78
2021/07/04 02:59:37;;;;;;;7.50;6.82;;;18.30;99.90;;;;;;5072538;28;20033;-78
2021/07/04 03:02:03;;;;;;;8.95;7.97;;;18.10;99.90;;;;;;5072058;28;20039;-78
2021/07/04 03:04:29;;;;;;;11.07;7.80;;;18.20;99.90;;;;;;5071926;28;20032;-78
2021/07/04 03:06:57;;;;;;;8.00;7.30;;;18.30;99.90;;;;;;5072474;28;20153;-77
2021/07/04 03:09:23;;;;;;;11.35;6.80;;;18.40;99.90;;;;;;5072512;28;20024;-78
2021/07/04 03:11:50;;;;;;;8.18;5.90;;;18.40;99.90;;;;;;5072322;28;20089;-78
2021/07/04 03:14:16;;;;;;;7.43;6.15;;;18.30;99.90;;;;;;5071271;28;20381;-77
2021/07/04 03:16:42;;;;;;;7.10;6.22;;;18.30;99.90;;;;;;5072346;28;20392;-78
2021/07/04 03:19:08;;;;;;;8.07;7.25;;;18.20;99.90;;;;;;5071787;28;20033;-78
2021/07/04 03:21:34;;;;;;;7.97;7.05;;;18.20;99.90;;;;;;5072511;28;20049;-78
2021/07/04 03:24:01;;;;;;;8.68;7.10;;;18.30;99.90;;;;;;5071937;28;20411;-77
2021/07/04 03:26:27;;;;;;;8.93;8.05;;;18.40;99.90;;;;;;5071636;28;20095;-78
2021/07/04 03:28:52;;;;;;;10.10;7.43;;;18.50;99.90;;;;;;5072480;28;20063;-78
2021/07/04 03:31:18;;;;;;;9.38;8.48;;;18.60;99.90;;;;;;5071999;28;20037;-78
2021/07/04 03:33:44;;;;;;;7.65;6.85;;;18.60;99.90;;;;;;5072519;28;20036;-77
2021/07/04 03:36:09;;;;;;;7.55;6.85;;;18.70;99.90;;;;;;5070580;28;20416;-77
2021/07/04 03:38:35;;;;;;;8.60;7.72;;;18.70;99.90;;;;;;5072331;28;20029;-77
2021/07/04 03:41:01;;;;;;;8.00;7.22;;;18.70;99.90;;;;;;5071845;28;20446;-78
2021/07/04 03:43:27;;;;;;;10.65;7.63;;;18.70;99.90;;;;;;5071975;28;20033;-77
2021/07/04 03:45:52;;;;;;;8.05;7.07;;;18.80;99.90;;;;;;5072214;28;20063;-77
2021/07/04 03:48:19;;;;;;;8.45;7.57;;;18.80;99.90;;;;;;5072172;28;20028;-78
2021/07/04 03:50:45;;;;;;;11.38;8.15;;;18.80;99.90;;;;;;5071867;28;20012;-78
2021/07/04 03:53:11;;;;;;;12.52;8.00;;;18.70;99.90;;;;;;5071794;28;20024;-77
2021/07/04 03:55:37;;;;;;;8.77;7.90;;;18.80;99.90;;;;;;5072123;28;20057;-78
2021/07/04 03:58:03;;;;;;;8.43;6.82;;;18.90;99.90;;;;;;5072259;28;20036;-78
2021/07/04 04:00:29;;;;;;;8.45;7.53;;;18.90;99.90;;;;;;5070560;28;20463;-77
2021/07/04 04:02:55;;;;;;;9.15;6.85;;;18.90;99.90;;;;;;5070473;28;20128;-77
2021/07/04 04:05:20;;;;;;;7.82;6.95;;;18.90;99.90;;;;;;5071513;28;20055;-77
2021/07/04 04:07:46;;;;;;;10.43;6.78;;;18.90;99.90;;;;;;5072373;28;20025;-78
2021/07/04 04:10:12;;;;;;;8.05;6.70;;;18.90;99.90;;;;;;5071136;28;20059;-77
2021/07/04 04:12:38;;;;;;;8.10;7.10;;;18.90;99.90;;;;;;5071998;28;20430;-78
2021/07/04 04:15:07;;;;;;;11.32;7.13;;;19.00;99.90;;;;;;5073974;28;20028;-78
2021/07/04 04:17:32;;;;;;;8.00;7.20;;;19.00;99.90;;;;;;5076008;28;20508;-77
2021/07/04 04:19:58;;;;;;;7.53;6.80;;;18.90;99.90;;;;;;5074162;28;20045;-77
2021/07/04 04:22:24;;;;;;;8.35;7.63;;;18.50;99.90;;;;;;5075744;28;20029;-78
2021/07/04 04:24:50;;;;;;;9.90;8.77;;;18.40;99.90;;;;;;5075566;28;20025;-77
2021/07/04 04:27:16;;;;;;;11.80;9.07;;;18.30;99.90;;;;;;5074082;28;20496;-77
2021/07/04 04:29:44;;;;;;;13.07;8.20;;;18.40;99.90;;;;;;5075476;28;20021;-77
2021/07/04 04:32:10;;;;;;;12.13;7.85;;;18.50;99.90;;;;;;5055674;28;20037;-77
2021/07/04 04:34:36;;;;;;;15.75;9.57;;;18.50;99.90;;;;;;5064359;28;20028;-77
2021/07/04 04:37:03;;;;;;;11.25;9.27;;;18.30;99.90;;;;;;5074972;28;20033;-77
2021/07/04 04:39:29;;;;;;;10.68;8.68;;;18.60;99.90;;;;;;5075202;28;20392;-77
2021/07/04 04:41:55;;;;;;;12.77;9.52;;;18.70;99.90;;;;;;5075089;28;20036;-77
2021/07/04 04:44:21;;;;;;;20.33;10.95;;;18.70;99.90;;;;;;5075450;28;20047;-76
2021/07/04 04:46:46;;;;;;;12.43;9.95;;;18.70;99.90;;;;;;5075278;28;20468;-76
2021/07/04 04:49:12;;;;;;;14.25;10.23;;;18.80;99.90;;;;;;5075268;28;20029;-77
2021/07/04 04:51:39;;;;;;;15.68;10.48;;;18.90;99.90;;;;;;5074553;28;20040;-76
2021/07/04 04:54:05;;;;;;;14.02;10.48;;;18.90;99.90;;;;;;5074834;28;20062;-76
2021/07/04 04:56:32;;;;;;;11.27;8.45;;;18.80;99.90;;;;;;5074903;28;20060;-76
2021/07/04 04:58:58;;;;;;;10.15;8.55;;;18.80;99.90;;;;;;5073651;28;20038;-76
2021/07/04 05:01:28;;;;;;;9.65;7.53;;;19.10;99.90;;;;;;5074486;28;20068;-76
2021/07/04 05:03:55;;;;;;;7.18;6.47;;;19.10;99.90;;;;;;5073276;28;20029;-76
2021/07/04 05:06:21;;;;;;;6.93;5.93;;;19.10;99.90;;;;;;5074341;28;20089;-77
2021/07/04 05:08:47;;;;;;;7.57;6.88;;;19.00;99.90;;;;;;5074988;28;20029;-76
2021/07/04 05:11:13;;;;;;;5.78;5.28;;;19.10;99.90;;;;;;5074822;28;20035;-76
2021/07/04 05:13:39;;;;;;;6.55;5.05;;;19.10;99.90;;;;;;5074724;28;20445;-76
2021/07/04 05:16:08;;;;;;;4.60;4.05;;;19.00;99.90;;;;;;5074548;28;20514;-76
2021/07/04 05:18:34;;;;;;;3.60;3.20;;;19.10;99.90;;;;;;5075011;28;20028;-76
2021/07/04 05:21:01;;;;;;;2.50;2.25;;;19.10;99.90;;;;;;5073633;28;20500;-76
2021/07/04 05:23:27;;;;;;;2.83;2.05;;;19.10;99.90;;;;;;5073521;28;20021;-76
2021/07/04 05:25:56;;;;;;;3.80;1.80;;;19.00;99.90;;;;;;5074125;28;20031;-76
2021/07/04 05:28:22;;;;;;;1.73;1.45;;;19.10;99.90;;;;;;5074142;28;20070;-76
2021/07/04 05:30:49;;;;;;;1.30;1.20;;;19.00;99.90;;;;;;5074071;28;20021;-76
2021/07/04 05:33:14;;;;;;;2.90;0.75;;;19.00;99.90;;;;;;5074263;28;20046;-76
2021/07/04 05:35:40;;;;;;;1.42;0.80;;;18.90;99.90;;;;;;5073653;28;20103;-76
2021/07/04 05:38:16;;;;;;;0.75;0.75;;;18.90;99.90;;;;;;5074225;28;20036;-76
2021/07/04 05:40:42;;;;;;;0.93;0.70;;;18.90;99.90;;;;;;5073185;28;20035;-76
2021/07/04 05:43:08;;;;;;;1.63;0.57;;;18.90;99.90;;;;;;5073995;28;20369;-76
2021/07/04 05:45:34;;;;;;;0.80;0.80;;;19.00;99.90;;;;;;5073638;28;20028;-77
2021/07/04 05:48:01;;;;;;;1.15;0.85;;;18.90;99.90;;;;;;5074454;28;20013;-76
2021/07/04 05:50:27;;;;;;;0.50;0.50;;;18.90;99.90;;;;;;5073803;28;20100;-76
2021/07/04 05:52:52;;;;;;;0.57;0.57;;;18.90;99.90;;;;;;5073721;28;20162;-76
2021/07/04 05:55:19;;;;;;;3.55;0.65;;;18.90;99.90;;;;;;5073510;28;20028;-76
2021/07/04 05:57:45;;;;;;;0.57;0.50;;;18.90;99.90;;;;;;5073745;28;20055;-76
2021/07/04 06:00:12;;;;;;;0.45;0.40;;;19.10;99.90;;;;;;5073595;28;20016;-76
2021/07/04 06:02:37;;;;;;;0.52;0.40;;;19.00;99.90;;;;;;5073415;28;20033;-76
2021/07/04 06:05:04;;;;;;;0.40;0.40;;;19.00;99.90;;;;;;5073717;28;20402;-76
2021/07/04 06:07:29;;;;;;;0.82;0.30;;;18.90;99.90;;;;;;5073320;28;20103;-76
2021/07/04 06:09:55;;;;;;;0.32;0.32;;;18.70;99.90;;;;;;5073496;28;20450;-77
2021/07/04 06:12:21;;;;;;;0.80;0.60;;;18.90;99.90;;;;;;5073545;28;20385;-76
2021/07/04 06:14:47;;;;;;;1.17;0.50;;;18.80;99.90;;;;;;5073558;28;20037;-76
2021/07/04 06:17:12;;;;;;;0.52;0.40;;;18.60;99.90;;;;;;5073550;28;20025;-76
2021/07/04 06:19:38;;;;;;;0.57;0.55;;;18.60;99.90;;;;;;5072909;28;20024;-76
2021/07/04 06:22:04;;;;;;;0.68;0.68;;;18.60;99.90;;;;;;5073506;28;20060;-76
2021/07/04 06:24:30;;;;;;;1.05;0.70;;;18.50;99.90;;;;;;5073278;28;20106;-76
2021/07/04 06:26:56;;;;;;;0.90;0.80;;;18.50;99.90;;;;;;5073274;28;20075;-77
2021/07/04 06:29:21;;;;;;;2.25;0.60;;;18.40;99.90;;;;;;5073382;28;20041;-76
2021/07/04 06:31:47;;;;;;;1.25;0.77;;;18.40;99.90;;;;;;5072930;28;20033;-76
2021/07/04 06:34:13;;;;;;;0.88;0.63;;;18.50;99.90;;;;;;5071258;28;20111;-76
2021/07/04 06:36:38;;;;;;;3.25;0.55;;;18.50;99.90;;;;;;5072789;28;20028;-76
2021/07/04 06:39:05;;;;;;;1.42;0.80;;;18.50;99.90;;;;;;5071971;28;20036;-77
2021/07/04 06:41:30;;;;;;;0.55;0.55;;;18.50;99.90;;;;;;5072905;28;20029;-76
2021/07/04 06:43:57;;;;;;;1.15;0.50;;;18.40;99.90;;;;;;5072913;28;20389;-77
2021/07/04 06:46:23;;;;;;;0.55;0.50;;;18.40;99.90;;;;;;5072999;28;20029;-76
2021/07/04 06:48:49;;;;;;;0.75;0.60;;;18.50;99.90;;;;;;5072202;28;20042;-76
2021/07/04 06:51:14;;;;;;;0.77;0.50;;;18.50;99.90;;;;;;5072368;28;20024;-76
2021/07/04 06:53:40;;;;;;;0.60;0.60;;;18.70;99.90;;;;;;5072970;28;20407;-76
2021/07/04 06:56:06;;;;;;;2.30;0.40;;;18.80;99.90;;;;;;5072998;28;20032;-76
2021/07/04 06:58:32;;;;;;;0.65;0.55;;;19.10;99.90;;;;;;5071702;28;20027;-76
2021/07/04 07:00:58;;;;;;;2.05;0.40;;;19.50;99.90;;;;;;5072548;28;20385;-76
2021/07/04 07:03:23;;;;;;;0.40;0.40;;;19.70;99.90;;;;;;5072218;28;20040;-76
2021/07/04 07:05:49;;;;;;;0.40;0.40;;;20.00;99.90;;;;;;5072839;28;20024;-76
2021/07/04 07:08:15;;;;;;;1.63;0.32;;;20.10;99.90;;;;;;5072795;28;20066;-76
2021/07/04 07:10:41;;;;;;;0.40;0.30;;;20.00;99.90;;;;;;5072376;28;20021;-76
2021/07/04 07:13:06;;;;;;;0.40;0.40;;;20.20;99.90;;;;;;5072745;28;20029;-76
2021/07/04 07:15:32;;;;;;;0.43;0.43;;;20.30;99.90;;;;;;5072645;28;20032;-76
2021/07/04 07:17:58;;;;;;;0.52;0.40;;;20.30;99.90;;;;;;5072338;28;20020;-76
2021/07/04 07:20:27;;;;;;;1.27;0.40;;;20.40;99.90;;;;;;5072315;28;20052;-76
2021/07/04 07:22:53;;;;;;;0.77;0.40;;;20.40;99.90;;;;;;5072504;28;20029;-76
2021/07/04 07:25:18;;;;;;;0.45;0.45;;;20.50;99.90;;;;;;5072761;28;20028;-76
2021/07/04 07:27:44;;;;;;;0.40;0.30;;;20.60;99.90;;;;;;5071825;28;20032;-76
2021/07/04 07:30:12;;;;;;;2.83;0.45;;;20.50;99.90;;;;;;5072105;28;20024;-76
2021/07/04 07:32:38;;;;;;;1.10;0.35;;;20.50;99.90;;;;;;5071772;28;20063;-76
2021/07/04 07:35:05;;;;;;;0.40;0.40;;;20.60;99.90;;;;;;5087437;28;20119;-76
2021/07/04 07:37:31;;;;;;;0.50;0.50;;;20.40;99.90;;;;;;5071866;28;20439;-76
2021/07/04 07:39:57;;;;;;;1.40;0.50;;;20.50;99.90;;;;;;5072222;28;20032;-76
2021/07/04 07:42:23;;;;;;;1.88;0.35;;;20.50;99.90;;;;;;5072596;28;20121;-76
2021/07/04 07:44:48;;;;;;;1.67;0.40;;;20.30;99.90;;;;;;5072471;28;20035;-76
2021/07/04 07:47:14;;;;;;;0.40;0.40;;;20.30;99.90;;;;;;5072054;28;20031;-76
2021/07/04 07:49:40;;;;;;;0.60;0.60;;;20.50;99.90;;;;;;5073394;28;20031;-76
2021/07/04 07:52:06;;;;;;;2.08;0.90;;;20.50;99.90;;;;;;5076192;28;20033;-76
2021/07/04 07:54:32;;;;;;;0.63;0.60;;;20.40;99.90;;;;;;5076531;28;20047;-76
2021/07/04 07:57:01;;;;;;;0.70;0.70;;;20.30;99.90;;;;;;5076084;28;20392;-76
2021/07/04 07:59:28;;;;;;;3.03;0.77;;;20.40;99.90;;;;;;5076114;28;20039;-76
2021/07/04 08:01:54;;;;;;;0.70;0.70;;;20.40;99.90;;;;;;5075780;28;20102;-76
2021/07/04 08:04:19;;;;;;;1.20;0.98;;;20.50;99.90;;;;;;5076139;28;20103;-76
2021/07/04 08:06:45;;;;;;;1.40;1.25;;;20.50;99.90;;;;;;5076141;28;20103;-76
2021/07/04 08:09:11;;;;;;;2.58;1.20;;;21.10;99.90;;;;;;5074812;28;20480;-76
2021/07/04 08:11:36;;;;;;;1.10;1.00;;;21.10;99.90;;;;;;5075534;28;20029;-76
2021/07/04 08:14:02;;;;;;;1.30;1.20;;;21.30;99.90;;;;;;5075926;28;20032;-76
2021/07/04 08:16:28;;;;;;;1.95;1.85;;;21.60;99.90;;;;;;5075729;28;20099;-76
2021/07/04 08:18:54;;;;;;;1.60;1.50;;;21.80;99.90;;;;;;5075793;28;20061;-76
2021/07/04 08:21:20;;;;;;;2.45;1.63;;;22.00;99.90;;;;;;5075089;28;20527;-76
2021/07/04 08:23:46;;;;;;;2.90;1.52;;;22.00;99.90;;;;;;5076068;28;20040;-76
2021/07/04 08:26:11;;;;;;;1.80;1.70;;;22.20;99.90;;;;;;5075667;28;20020;-76
2021/07/04 08:28:37;;;;;;;1.83;1.40;;;21.90;99.90;;;;;;5074015;28;20082;-76
2021/07/04 08:31:03;;;;;;;1.75;1.65;;;21.90;99.90;;;;;;5074820;28;20028;-76
2021/07/04 08:33:29;;;;;;;1.65;1.35;;;21.90;99.90;;;;;;5074267;28;20056;-76
2021/07/04 08:35:55;;;;;;;1.83;1.73;;;22.10;99.90;;;;;;5073923;28;20028;-76
2021/07/04 08:38:21;;;;;;;5.97;2.30;;;22.00;99.90;;;;;;5074268;28;20051;-76
2021/07/04 08:40:48;;;;;;;2.88;1.65;;;22.40;99.90;;;;;;5073949;28;20021;-76
2021/07/04 08:43:29;;;;;;;1.90;1.73;;;22.50;99.90;;;;;;5073869;28;20566;-76
2021/07/04 08:45:55;;;;;;;3.15;1.40;;;22.50;99.90;;;;;;5073232;28;20082;-76
2021/07/04 08:48:21;;;;;;;1.42;1.33;;;22.40;99.90;;;;;;5072775;28;20090;-76
2021/07/04 08:50:48;;;;;;;1.75;1.27;;;22.40;99.90;;;;;;5073854;28;20484;-76
2021/07/04 08:53:14;;;;;;;1.42;1.33;;;22.80;99.90;;;;;;5073632;28;20503;-76
2021/07/04 08:55:43;;;;;;;0.93;0.93;;;22.90;99.90;;;;;;5071188;28;20013;-76
2021/07/04 08:58:09;;;;;;;0.93;0.93;;;22.80;99.90;;;;;;5073284;28;20540;-76
2021/07/04 09:00:34;;;;;;;1.23;0.90;;;22.90;99.90;;;;;;5073029;28;20032;-76
2021/07/04 09:03:00;;;;;;;1.23;1.00;;;22.80;99.90;;;;;;5072883;28;20373;-77
2021/07/04 09:05:41;;;;;;;2.17;1.92;;;22.60;99.90;;;;;;5074026;28;20024;-77
2021/07/04 09:08:20;;;;;;;2.67;2.47;;;22.40;99.90;;;;;;5074908;28;20033;-76
2021/07/04 09:11:16;;;;;;;4.30;3.47;;;21.90;99.90;;;;;;5074421;28;20024;-76
2021/07/04 09:13:45;;;;;;;4.85;3.33;;;22.40;99.90;;;;;;5070779;28;20024;-76
2021/07/04 09:16:20;;;;;;;3.53;3.22;;;22.20;99.90;;;;;;5073246;28;20078;-76
2021/07/04 09:19:13;;;;;;;7.05;3.55;;;22.20;99.90;;;;;;5071309;28;20013;-76
2021/07/04 09:21:39;;;;;;;4.93;3.70;;;22.10;99.90;;;;;;5072848;28;20041;-76
2021/07/04 09:24:26;;;;;;;5.32;4.30;;;22.00;99.90;;;;;;5073171;28;20061;-76
2021/07/04 09:26:52;;;;;;;5.38;3.97;;;22.10;99.90;;;;;;5072244;28;20051;-76
2021/07/04 09:29:48;;;;;;;5.28;4.30;;;21.60;99.90;;;;;;5072709;28;20052;-76
2021/07/04 09:32:16;;;;;;;6.47;4.45;;;22.10;99.90;;;;;;5072169;28;20496;-76
2021/07/04 09:34:56;;;;;;;4.72;4.15;;;21.30;99.90;;;;;;5071257;28;20373;-76
2021/07/04 09:37:30;;;;;;;4.28;3.50;;;21.90;99.90;;;;;;5073979;28;20029;-76
2021/07/04 09:40:20;;;;;;;4.85;4.45;;;21.70;99.90;;;;;;5071556;28;20031;-76
2021/07/04 09:43:06;;;;;;;4.53;3.63;;;21.90;99.90;;;;;;5072610;28;20126;-76
2021/07/04 09:45:54;;;;;;;4.72;4.32;;;22.10;99.90;;;;;;5073809;28;20028;-76
2021/07/04 09:48:35;;;;;;;5.50;4.45;;;21.90;99.90;;;;;;5071985;28;20028;-76
2021/07/04 09:51:12;;;;;;;4.32;3.92;;;21.80;99.90;;;;;;5072225;28;20013;-76
2021/07/04 09:53:44;;;;;;;5.93;4.68;;;21.80;99.90;;;;;;5071367;28;20074;-76
2021/07/04 09:56:12;;;;;;;5.50;3.97;;;21.70;99.90;;;;;;5072128;28;20025;-76
2021/07/04 09:58:40;;;;;;;4.32;3.92;;;21.90;99.90;;;;;;5074239;28;20146;-76
2021/07/04 10:01:06;;;;;;;4.53;4.07;;;22.20;99.90;;;;;;5074001;28;20017;-76
2021/07/04 10:03:37;;;;;;;8.80;4.95;;;22.00;99.90;;;;;;5073675;28;20115;-76
2021/07/04 10:06:04;;;;;;;5.30;4.03;;;22.10;99.90;;;;;;5073845;28;20024;-76
2021/07/04 10:08:34;;;;;;;4.22;3.65;;;22.10;99.90;;;;;;5073892;28;20028;-76
2021/07/04 10:11:02;;;;;;;4.80;4.05;;;21.50;99.90;;;;;;5073265;28;20032;-76
2021/07/04 10:13:29;;;;;;;4.03;3.35;;;21.30;99.90;;;;;;5073314;28;20083;-76
2021/07/04 10:15:55;;;;;;;7.28;3.90;;;21.40;99.90;;;;;;5073760;28;20039;-76
2021/07/04 10:18:21;;;;;;;7.47;4.22;;;21.60;99.90;;;;;;5072271;28;20082;-76
2021/07/04 10:20:49;;;;;;;4.47;4.03;;;21.40;99.90;;;;;;5073436;28;20056;-76
2021/07/04 10:23:18;;;;;;;4.55;4.13;;;21.30;99.90;;;;;;5073585;28;20052;-76
2021/07/04 10:25:45;;;;;;;5.63;4.88;;;21.30;99.90;;;;;;5073422;28;20031;-76
2021/07/04 10:28:39;;;;;;;4.45;4.03;;;21.60;99.90;;;;;;5073330;28;20078;-76
2021/07/04 10:31:13;;;;;;;3.95;3.65;;;21.10;99.90;;;;;;5073369;28;20459;-76
2021/07/04 10:33:39;;;;;;;5.45;3.70;;;21.00;99.90;;;;;;5073357;28;20024;-76
2021/07/04 10:36:11;;;;;;;4.93;4.40;;;21.20;99.90;;;;;;5073181;28;20492;-76
2021/07/04 10:38:58;;;;;;;4.25;3.95;;;21.30;99.90;;;;;;5073211;28;20054;-76
2021/07/04 10:41:29;;;;;;;4.35;3.92;;;21.60;99.90;;;;;;5072629;28;20021;-76
2021/07/04 10:44:08;;;;;;;5.15;4.70;;;21.30;99.90;;;;;;5071815;28;20053;-76
2021/07/04 10:46:43;;;;;;;5.47;4.40;;;21.30;99.90;;;;;;5073164;28;20034;-76
2021/07/04 10:49:12;;;;;;;3.97;3.67;;;21.20;99.90;;;;;;5073249;28;20028;-76
2021/07/04 10:51:56;;;;;;;4.78;4.25;;;20.90;99.90;;;;;;5072981;28;20074;-76
2021/07/04 10:54:41;;;;;;;4.60;3.47;;;21.10;99.90;;;;;;5071860;28;20404;-76
2021/07/04 10:57:14;;;;;;;7.70;3.80;;;20.70;99.90;;;;;;5072533;28;20027;-76
2021/07/04 11:02:59;;;;;;;4.53;2.53;;;20.50;99.90;;;;;;5073036;28;20043;-76
2021/07/04 11:05:35;;;;;;;2.97;2.78;;;20.30;99.90;;;;;;5065917;28;20127;-75
2021/07/04 11:08:15;;;;;;;4.30;3.88;;;20.10;99.90;;;;;;5067715;28;20387;-76
2021/07/04 11:11:01;;;;;;;3.60;3.10;;;20.30;99.90;;;;;;5069992;28;20491;-76
2021/07/04 11:13:33;;;;;;;3.38;2.60;;;20.30;99.90;;;;;;5071779;28;20029;-76
2021/07/04 11:16:14;;;;;;;3.60;3.28;;;20.30;99.90;;;;;;5072957;28;20056;-76
2021/07/04 11:18:56;;;;;;;2.80;2.60;;;20.00;99.90;;;;;;5073204;28;20395;-76
2021/07/04 11:21:42;;;;;;;2.67;2.45;;;20.20;99.90;;;;;;5071923;28;20105;-76
2021/07/04 11:24:19;;;;;;;5.28;3.13;;;20.20;99.90;;;;;;5071304;28;20426;-76
2021/07/04 11:27:22;;;;;;;3.50;3.20;;;20.10;99.90;;;;;;5071635;28;20431;-76
2021/07/04 11:30:15;;;;;;;3.70;3.00;;;20.50;99.90;;;;;;5062848;28;20033;-76
2021/07/04 11:32:41;;;;;;;3.92;3.10;;;20.70;99.90;;;;;;5071868;28;20036;-76
2021/07/04 11:35:07;;;;;;;2.97;2.67;;;20.50;99.90;;;;;;5072424;28;20029;-76
2021/07/04 11:37:41;;;;;;;3.13;2.40;;;20.60;99.90;;;;;;5071448;28;20031;-76
2021/07/04 11:40:07;;;;;;;4.30;2.30;;;20.50;99.90;;;;;;5072034;28;20024;-76
2021/07/04 11:42:33;;;;;;;2.58;1.80;;;20.90;99.90;;;;;;5071279;28;20107;-76
2021/07/04 11:44:59;;;;;;;2.58;1.67;;;20.60;99.90;;;;;;5072213;28;20628;-76
2021/07/04 11:47:24;;;;;;;1.65;1.52;;;20.40;99.90;;;;;;5072005;28;20032;-76
2021/07/04 11:49:50;;;;;;;2.05;1.30;;;20.80;99.90;;;;;;5072057;28;20064;-76
2021/07/04 11:52:20;;;;;;;1.20;1.10;;;20.40;99.90;;;;;;5071603;28;20051;-76
2021/07/04 11:54:46;;;;;;;;;;;20.60;99.90;;;;;;5072295;28;20021;-76
2021/07/04 11:57:30;;;;;;;1.52;1.20;;;20.80;99.90;;;;;;5072325;28;19932;-76
2021/07/04 11:59:58;;;;;;;0.90;0.90;;;21.20;99.90;;;;;;5052399;28;20029;-76
2021/07/04 12:02:26;;;;;;;1.10;1.10;;;20.90;99.90;;;;;;5054552;28;20086;-76
2021/07/04 12:04:51;;;;;;;1.83;1.00;;;21.60;99.90;;;;;;5072164;28;20091;-76
2021/07/04 12:07:22;;;;;;;1.92;1.20;;;21.10;99.90;;;;;;5071826;28;20544;-76
2021/07/04 12:09:54;;;;;;;2.25;0.98;;;20.70;99.90;;;;;;5072293;28;20033;-76
2021/07/04 12:12:29;;;;;;;2.00;1.15;;;20.60;99.90;;;;;;5071951;28;20035;-76
2021/07/04 12:15:04;;;;;;;1.77;0.80;;;20.50;99.90;;;;;;5071946;28;20024;-76
2021/07/04 12:17:38;;;;;;;1.70;0.90;;;19.70;99.90;;;;;;5072030;28;20078;-76
2021/07/04 12:20:09;;;;;;;1.10;1.00;;;19.30;99.90;;;;;;5071894;28;20044;-76
2021/07/04 12:22:37;;;;;;;1.15;1.05;;;19.20;99.90;;;;;;5071487;28;20085;-76
2021/07/04 12:25:14;;;;;;;2.67;1.20;;;19.10;99.90;;;;;;5072230;28;20081;-77
2021/07/04 12:27:45;;;;;;;1.77;1.02;;;20.00;99.90;;;;;;5071885;28;20036;-77
2021/07/04 12:30:24;;;;;;;2.38;1.10;;;20.00;99.90;;;;;;5071786;28;20055;-77
2021/07/04 12:32:59;;;;;;;1.37;1.10;;;20.30;99.90;;;;;;5070720;28;20037;-77
2021/07/04 12:35:26;;;;;;;0.90;0.90;;;20.30;99.90;;;;;;5072341;28;20285;-77
2021/07/04 12:37:53;;;;;;;1.52;0.73;;;19.80;99.90;;;;;;5075717;28;20025;-77
2021/07/04 12:40:26;;;;;;;2.38;0.90;;;19.50;99.90;;;;;;5075507;28;20074;-77
2021/07/04 12:42:52;;;;;;;2.35;1.25;;;19.20;99.90;;;;;;5075615;28;20024;-77
2021/07/04 12:45:22;;;;;;;1.25;0.95;;;18.90;99.90;;;;;;5075303;28;20052;-77
2021/07/04 12:48:05;;;;;;;1.90;1.00;;;19.00;99.90;;;;;;5073015;28;20369;-77
2021/07/04 12:50:47;;;;;;;1.98;0.80;;;19.40;99.90;;;;;;5079764;28;20056;-77
2021/07/04 12:53:13;;;;;;;1.25;1.15;;;20.50;99.90;;;;;;5073390;28;20029;-78
2021/07/04 12:55:52;;;;;;;1.73;1.30;;;21.20;99.90;;;;;;5075637;28;20107;-77